Portada
METAR-TAF:

METAR-TAF

Aeroports :

Oral, Kazakhstan

latitud: 51-15N, longitud: 051-17E, altitud: 36 m

Observació

L'informe es va fer fa 24 minuts, a les 19:30 UTC
Vent 14 kt del Sud-Oest
Temperatura 0°C
Humitat 93%
Pressió 1022 hPa
Visibilitat: 4000 m
Cel cobert a una alçada de 500 ft
boirina

METAR: UARR 071930Z 23007MPS 4000 BR OVC005 00/M01 Q1022 R22/750250 NOSIG RMK QBB170 QFE763/1017

Hora: 00:54 (19:54 UTC)

Pronòstic

L'informe es va fer fa 2 hores i 54 minuts, a les 17:00 UTC
Pronòstic vàlid del 07 a les 18 UTC al 08 a les 03 UTC
Vent 12 kt del Sud/Sud-Oest
Visibilitat: 3100 m
Cel ennuvolat a una alçada de 500 ft
boirina
Temporalment
l' 07 a les 18 UTC al 07 a les 22 UTC
Visibilitat: 0400 m
a una alçada de 200 ft
boira gebradora
Temporalment
l' 07 a les 22 UTC al 08 a les 03 UTC
Visibilitat: 0300 m
a una alçada de 200 ft
boira gebradora

TAF: UARR 071700Z 0718/0803 21006MPS 3100 BR BKN005 TEMPO 0718/0722 0400 FZFG VV002 TEMPO 0722/0803 0300 FZFG VV002

Observacions i pronòstics meteorològics de més de 4000 aeroports (METAR i TAF).

Les estacions disponibles són els punts grocs i vermells al mapa.

Posi el ratolí al punt desitjat per veure el nom de l'estació.

Feu clic per veure les observacions i els pronòstics meteorològics.

Per canviar el mapa: feu clic els botons verds amb una creu de color negre per apropar; al botó verd amb un guió per allunyar la imatge; o en les fletxes verdes per a mapes adjacents.


METAR-TAF: